PWSweather.com
Personal Weather Stations
Station Observations

MakarauRodneyNZ

Lat: -36.52421, Lon: 174.47572

Elevation: 606

Station Type: Davis VP2

http://kaiparaweather.dynu.net/index.php

Latest ConditionsUpdated 3:40:01 AM GMT+12:12 Wednesday, Sep 26, 2018
Currently Today's Max Today's Min Today's Average
Temperature 52.1°F11.2°C 52.5°F11.4°C 50.4°F10.2°C 51.5°F10.8°C
Dew Point 47.1°F8.4°C 47.1°F8.4°C 44.7°F7.1°C 45.7°F7.6°C
Winds 11.5 mph WSW18.5 kmh WSW 16.1 mph -25.9 kmh - - 11.0 mph 17.7 kmh
Wind Gusts 19.6 mph31.5 kmh 20.7 mph33.3 kmh - -
Humidity 83% 83% 79% 81%
Pressure 29.85 in1010.8 mb 29.86 in1011.2 mb 29.85 in1010.8 mb -
Precipitation - 0.01 in0.3 mm - -
Hour Temp Dew Point Humidity Winds Wind Gusts Pressure Precip Precip Rate Daily Precip Total
03:40 AM 52.1°F11.2°C 47.1°F8.4°C 83% 11.5 mph WSW18.5 kmh WSW 19.6 mph31.5 kmh 29.85 in1010.8 mb - 0.01 in0.3 mm 0.01 in0.3 mm
03:30 AM 52.0°F11.1°C 46.3°F7.9°C 81% 12.7 mph W20.4 kmh W 13.8 mph22.2 kmh 29.85 in1010.8 mb - 0.00 in0.0 mm 0.00 in0.0 mm
03:20 AM 51.7°F10.9°C 45.7°F7.6°C 80% 9.2 mph WSW14.8 kmh WSW 16.1 mph25.9 kmh 29.85 in1010.8 mb - 0.00 in0.0 mm 0.00 in0.0 mm
03:10 AM 51.7°F10.9°C 46.1°F7.8°C 81% 8.1 mph WSW13.0 kmh WSW 11.5 mph18.5 kmh 29.85 in1010.8 mb - 0.00 in0.0 mm 0.00 in0.0 mm
03:00 AM 51.7°F10.9°C 46.1°F7.8°C 81% 15.0 mph W24.1 kmh W 20.7 mph33.3 kmh 29.85 in1010.8 mb - 0.00 in0.0 mm 0.00 in0.0 mm
02:50 AM 51.8°F11.0°C 45.8°F7.7°C 80% 12.7 mph WNW20.4 kmh WNW 20.7 mph33.3 kmh 29.86 in1011.2 mb - 0.00 in0.0 mm 0.00 in0.0 mm
02:40 AM 52.3°F11.3°C 46.3°F7.9°C 80% 12.7 mph WSW20.4 kmh WSW 19.6 mph31.5 kmh 29.85 in1010.8 mb - 0.00 in0.0 mm 0.00 in0.0 mm
02:30 AM 52.5°F11.4°C 46.5°F8.1°C 80% 16.1 mph WNW25.9 kmh WNW 20.7 mph33.3 kmh 29.85 in1010.8 mb - 0.00 in0.0 mm 0.00 in0.0 mm
02:20 AM 52.0°F11.1°C 46.3°F7.9°C 81% 13.8 mph WNW22.2 kmh WNW 17.3 mph27.8 kmh 29.85 in1010.8 mb - 0.00 in0.0 mm 0.00 in0.0 mm
02:10 AM 51.2°F10.7°C 45.5°F7.5°C 81% 11.5 mph W18.5 kmh W 15.0 mph24.1 kmh 29.85 in1010.8 mb - 0.00 in0.0 mm 0.00 in0.0 mm
02:00 AM 50.7°F10.4°C 45.4°F7.4°C 82% 10.4 mph W16.7 kmh W 12.7 mph20.4 kmh 29.86 in1011.2 mb - 0.00 in0.0 mm 0.00 in0.0 mm
01:50 AM 50.6°F10.3°C 45.0°F7.2°C 81% 10.4 mph WNW16.7 kmh WNW 15.0 mph24.1 kmh 29.86 in1011.2 mb - 0.00 in0.0 mm 0.00 in0.0 mm
01:40 AM 50.8°F10.4°C 45.2°F7.3°C 81% 10.4 mph W16.7 kmh W 17.3 mph27.8 kmh 29.86 in1011.2 mb - 0.00 in0.0 mm 0.00 in0.0 mm
01:30 AM 51.2°F10.7°C 45.6°F7.6°C 81% 11.5 mph W18.5 kmh W 15.0 mph24.1 kmh 29.86 in1011.2 mb - 0.00 in0.0 mm 0.00 in0.0 mm
01:20 AM 51.8°F11.0°C 46.1°F7.8°C 81% 10.4 mph WSW16.7 kmh WSW 19.6 mph31.5 kmh 29.86 in1011.2 mb - 0.00 in0.0 mm 0.00 in0.0 mm
01:10 AM 52.1°F11.2°C 46.1°F7.8°C 80% 6.9 mph WSW11.1 kmh WSW 11.5 mph18.5 kmh 29.86 in1011.2 mb - 0.00 in0.0 mm 0.00 in0.0 mm
01:00 AM 51.4°F10.8°C 45.4°F7.4°C 80% 11.5 mph W18.5 kmh W 17.3 mph27.8 kmh 29.86 in1011.2 mb - 0.00 in0.0 mm 0.00 in0.0 mm
12:50 AM 51.2°F10.7°C 45.2°F7.3°C 80% 8.1 mph W13.0 kmh W 15.0 mph24.1 kmh 29.86 in1011.2 mb - 0.00 in0.0 mm 0.00 in0.0 mm
12:40 AM 51.3°F10.7°C 45.3°F7.4°C 80% 8.1 mph W13.0 kmh W 13.8 mph22.2 kmh 29.86 in1011.2 mb - 0.00 in0.0 mm 0.00 in0.0 mm
12:30 AM 51.2°F10.7°C 45.3°F7.4°C 80% 11.5 mph NW18.5 kmh NW 17.3 mph27.8 kmh 29.86 in1011.2 mb - 0.00 in0.0 mm 0.00 in0.0 mm
12:20 AM 51.1°F10.6°C 44.8°F7.1°C 79% 9.2 mph W14.8 kmh W 18.4 mph29.6 kmh 29.85 in1010.8 mb - 0.00 in0.0 mm 0.00 in0.0 mm
12:10 AM 50.6°F10.3°C 44.7°F7.1°C 80% 9.2 mph W14.8 kmh W 18.4 mph29.6 kmh 29.85 in1010.8 mb - 0.00 in0.0 mm 0.00 in0.0 mm
12:00 AM 50.4°F10.2°C 45.4°F7.4°C 83% 12.7 mph W20.4 kmh W 19.6 mph31.5 kmh 29.85 in1010.8 mb - 0.00 in0.0 mm 0.00 in0.0 mm